Time;durP1;ratioP1;P1;durP2;ratioP2;P2;SDS_P1;SDS_P2;PMS_P1;PMS_P2;Temp;Humidity;BMP_temperature;BMP_pressure;BME280_temperature;BME280_humidity;BME280_pressure;Samples;Min_cycle;Max_cycle;Signal;HPM_P1;HPM_P2
2022/12/06 00:01:32;;;;;;;0.40;0.40;;;;;;;7.14;93.59;99605.75;4996624;28;20052;-70
2022/12/06 00:04:02;;;;;;;0.75;0.75;;;;;;;7.14;93.16;99613.38;4996521;28;20042;-69
2022/12/06 00:06:34;;;;;;;0.75;0.65;;;;;;;7.13;93.42;99598.97;5014242;28;20072;-69
2022/12/06 00:09:03;;;;;;;0.85;0.85;;;;;;;7.13;93.11;99596.44;5013936;28;20393;-70
2022/12/06 00:11:34;;;;;;;0.73;0.73;;;;;;;7.12;93.36;99582.06;5013888;28;20074;-69
2022/12/06 00:14:08;;;;;;;0.80;0.80;;;;;;;7.09;93.47;99571.84;5013822;28;20117;-70
2022/12/06 00:16:37;;;;;;;1.50;1.25;;;;;;;7.10;93.70;99573.56;5013593;28;20500;-70
2022/12/06 00:19:06;;;;;;;1.23;1.13;;;;;;;7.08;93.12;99570.19;5013851;28;20449;-70
2022/12/06 00:21:36;;;;;;;0.40;0.40;;;;;;;7.10;92.54;99571.03;5013544;28;20045;-70
2022/12/06 00:24:06;;;;;;;0.95;0.95;;;;;;;7.12;93.47;99567.69;5014145;28;20472;-69
2022/12/06 00:26:36;;;;;;;0.57;0.57;;;;;;;7.03;93.46;99541.34;5013527;28;20050;-70
2022/12/06 00:29:08;;;;;;;1.45;1.33;;;;;;;7.17;93.24;99555.03;5013744;28;20396;-70
2022/12/06 00:31:37;;;;;;;0.30;0.30;;;;;;;7.20;92.59;99560.97;4995971;28;20132;-70
2022/12/06 00:34:06;;;;;;;0.50;0.50;;;;;;;7.20;93.10;99555.06;5013400;28;20500;-69
2022/12/06 00:36:37;;;;;;;0.40;0.40;;;;;;;7.25;92.67;99553.41;5013686;28;20102;-69
2022/12/06 00:39:09;;;;;;;0.40;0.40;;;;;;;7.25;92.73;99568.66;5013445;28;20052;-69
2022/12/06 00:41:37;;;;;;;0.30;0.30;;;;;;;7.10;93.38;99543.13;5016861;28;20046;-69
2022/12/06 00:44:07;;;;;;;0.40;0.40;;;;;;;7.26;92.55;99580.50;5017388;28;20408;-69
2022/12/06 00:46:37;;;;;;;0.38;0.38;;;;;;;7.29;92.66;99600.88;5017317;28;20080;-69
2022/12/06 00:49:07;;;;;;;;;;;;;;;7.33;92.44;99618.69;5017778;28;20078;-68
2022/12/06 00:51:36;;;;;;;0.60;0.60;;;;;;;7.37;92.53;99632.25;5017056;28;20363;-68
2022/12/06 00:54:06;;;;;;;0.40;0.40;;;;;;;7.36;92.33;99633.09;5016913;28;20128;-68
2022/12/06 00:56:36;;;;;;;0.60;0.60;;;;;;;7.32;91.94;99623.72;5017928;28;20467;-68
2022/12/06 00:59:07;;;;;;;1.23;1.13;;;;;;;7.27;92.02;99633.81;5016862;28;20054;-67
2022/12/06 01:01:36;;;;;;;2.63;1.58;;;;;;;7.28;92.23;99627.94;5016811;28;20053;-68
2022/12/06 01:04:06;;;;;;;0.32;0.32;;;;;;;7.26;92.63;99627.06;5017104;28;20092;-68
2022/12/06 01:06:37;;;;;;;0.40;0.40;;;;;;;7.23;92.28;99637.16;5016943;28;20522;-68
2022/12/06 01:09:08;;;;;;;1.35;1.25;;;;;;;7.23;92.42;99629.56;5016734;28;20044;-68
2022/12/06 01:11:37;;;;;;;1.38;1.27;;;;;;;7.19;92.38;99639.66;5016950;28;20050;-68
2022/12/06 01:14:07;;;;;;;1.05;1.00;;;;;;;7.13;92.78;99639.56;5016754;28;20049;-69
2022/12/06 01:16:36;;;;;;;0.77;0.77;;;;;;;7.15;92.74;99645.53;5016518;28;20044;-68
2022/12/06 01:19:06;;;;;;;7.10;0.85;;;;;;;7.13;92.25;99640.41;5016448;28;20069;-68
2022/12/06 01:21:35;;;;;;;0.47;0.47;;;;;;;7.11;92.63;99639.56;4999304;28;20058;-69
2022/12/06 01:24:04;;;;;;;1.15;0.50;;;;;;;7.10;92.58;99639.56;5016401;28;20125;-68
2022/12/06 01:26:34;;;;;;;0.63;0.63;;;;;;;7.09;92.88;99635.28;5016545;28;20579;-68
2022/12/06 01:29:04;;;;;;;2.80;1.45;;;;;;;7.08;93.34;99633.59;4999055;28;20085;-68
2022/12/06 01:31:34;;;;;;;0.52;0.52;;;;;;;7.06;93.55;99622.56;5017038;28;20042;-69
2022/12/06 01:34:13;;;;;;;1.20;1.15;;;;;;;7.02;92.96;99618.28;5016417;28;20046;-68
2022/12/06 01:36:42;;;;;;;3.42;1.67;;;;;;;7.02;93.74;99620.84;5016470;28;20050;-68
2022/12/06 01:39:11;;;;;;;0.43;0.38;;;;;;;6.95;92.98;99606.38;5016109;28;20042;-69
2022/12/06 01:41:40;;;;;;;;;;;;;;;7.00;92.70;99612.34;5016212;28;20092;-68
2022/12/06 01:44:34;;;;;;;0.88;0.85;;;;;;;7.00;93.31;99607.28;5016314;28;20430;-68
2022/12/06 01:47:05;;;;;;;1.15;1.05;;;;;;;7.00;93.02;99612.34;5016398;28;20042;-68
2022/12/06 01:49:36;;;;;;;0.38;0.38;;;;;;;6.98;93.84;99601.34;5015888;28;20053;-68
2022/12/06 01:52:09;;;;;;;0.50;0.50;;;;;;;6.99;94.09;99600.50;5016141;28;20113;-68
2022/12/06 01:54:39;;;;;;;1.20;1.08;;;;;;;6.98;93.92;99602.16;4998243;28;20045;-68
2022/12/06 01:57:10;;;;;;;0.32;0.32;;;;;;;6.97;93.76;99594.56;5015716;28;20042;-69
2022/12/06 01:59:39;;;;;;;0.70;0.70;;;;;;;6.94;93.77;99586.91;5016090;28;20042;-69
2022/12/06 02:02:09;;;;;;;0.50;0.50;;;;;;;6.95;93.70;99594.53;5015653;28;20049;-68
2022/12/06 02:04:40;;;;;;;0.88;0.88;;;;;;;6.95;93.68;99588.63;5015648;28;20108;-68
2022/12/06 02:07:09;;;;;;;0.45;0.45;;;;;;;6.97;94.01;99592.00;5015579;28;20078;-68
2022/12/06 02:09:38;;;;;;;0.50;0.50;;;;;;;6.96;93.99;99582.72;5016101;28;20053;-68
2022/12/06 02:12:12;;;;;;;1.45;1.35;;;;;;;6.98;93.92;99574.25;5015517;28;20124;-68
2022/12/06 02:14:43;;;;;;;0.50;0.50;;;;;;;6.99;94.15;99570.03;5015450;28;20050;-69
2022/12/06 02:17:26;;;;;;;0.22;0.22;;;;;;;6.99;94.55;99559.91;5015389;28;20058;-68
2022/12/06 02:20:03;;;;;;;0.43;0.43;;;;;;;7.03;94.79;99551.50;5015357;28;20054;-69
2022/12/06 02:22:59;;;;;;;12.93;0.77;;;;;;;6.98;94.16;99538.75;5015322;28;20053;-68
2022/12/06 02:25:51;;;;;;;1.00;0.90;;;;;;;7.02;93.96;99544.72;4999408;28;20096;-69
2022/12/06 02:28:38;;;;;;;0.30;0.30;;;;;;;7.01;94.09;99535.38;5015515;28;20049;-69
2022/12/06 02:31:15;;;;;;;1.02;0.82;;;;;;;7.01;93.77;99517.63;5015459;28;20064;-69
2022/12/06 02:33:49;;;;;;;1.83;1.50;;;;;;;6.98;94.57;99471.97;5015607;28;20045;-68
2022/12/06 02:36:27;;;;;;;0.73;0.73;;;;;;;6.94;94.64;99467.66;5015112;28;20510;-69
2022/12/06 02:39:00;;;;;;;1.63;1.52;;;;;;;6.87;94.11;99468.44;5015275;28;20450;-69
2022/12/06 02:41:35;;;;;;;3.70;1.50;;;;;;;6.90;95.17;99478.63;5014948;28;20046;-69
2022/12/06 02:44:08;;;;;;;2.00;1.38;;;;;;;6.86;94.47;99471.81;4997828;28;20046;-69
2022/12/06 02:46:40;;;;;;;4.93;1.80;;;;;;;6.93;94.68;99488.81;4997742;28;20403;-70
2022/12/06 02:49:11;;;;;;;1.55;1.45;;;;;;;6.94;95.38;99487.97;5014851;28;20377;-70
2022/12/06 02:51:41;;;;;;;0.47;0.47;;;;;;;6.94;94.69;99480.34;5015069;28;20111;-70
2022/12/06 02:54:11;;;;;;;;;;;;;;;6.96;94.61;99479.53;5015101;28;20133;-70
2022/12/06 02:56:39;;;;;;;4.72;1.80;;;;;;;6.96;95.38;99474.47;5015241;28;19972;-70
2022/12/06 02:59:10;;;;;;;0.55;0.55;;;;;;;6.97;95.55;99477.84;5014639;28;20049;-70
2022/12/06 03:01:45;;;;;;;1.58;1.23;;;;;;;7.00;94.63;99475.34;4997249;28;20081;-70
2022/12/06 03:04:33;;;;;;;1.02;0.95;;;;;;;7.00;95.22;99477.88;5014354;28;20045;-70
2022/12/06 03:07:20;;;;;;;0.63;0.63;;;;;;;7.01;94.83;99482.97;5015100;28;20492;-70
2022/12/06 03:10:01;;;;;;;0.98;0.93;;;;;;;7.01;95.70;99482.97;5014409;28;20098;-70
2022/12/06 03:12:37;;;;;;;0.40;0.40;;;;;;;7.00;95.28;99485.50;5014718;28;20459;-70
2022/12/06 03:15:14;;;;;;;1.83;1.55;;;;;;;7.02;95.21;99482.16;5014294;28;20092;-70
2022/12/06 03:17:49;;;;;;;1.38;1.10;;;;;;;7.01;94.67;99480.44;5014647;28;20049;-71
2022/12/06 03:20:25;;;;;;;0.90;0.88;;;;;;;6.99;94.65;99476.16;5014538;28;20443;-70
2022/12/06 03:22:58;;;;;;;0.30;0.30;;;;;;;7.01;95.26;99487.19;5014563;28;20504;-70
2022/12/06 03:25:28;;;;;;;0.60;0.60;;;;;;;7.01;94.69;99482.97;5014542;28;20046;-70
2022/12/06 03:28:00;;;;;;;0.60;0.60;;;;;;;7.01;94.73;99482.13;5014782;28;20046;-70
2022/12/06 03:30:33;;;;;;;0.85;0.80;;;;;;;7.01;94.79;99482.97;5014370;28;20069;-70
2022/12/06 03:33:05;;;;;;;0.40;0.40;;;;;;;7.01;94.88;99482.13;5014376;28;20078;-70
2022/12/06 03:35:36;;;;;;;0.38;0.38;;;;;;;7.03;94.86;99490.63;5014012;28;20120;-70
2022/12/06 03:38:09;;;;;;;0.90;0.82;;;;;;;7.02;95.78;99502.44;5014060;28;20045;-70
2022/12/06 03:40:41;;;;;;;1.48;0.60;;;;;;;7.01;94.85;99508.34;5013824;28;20585;-70
2022/12/06 03:43:10;;;;;;;0.30;0.30;;;;;;;6.93;95.79;99509.97;4996660;28;20041;-70
2022/12/06 03:45:45;;;;;;;0.50;0.50;;;;;;;6.97;95.64;99516.75;5013912;28;20050;-69
2022/12/06 03:48:19;;;;;;;0.50;0.50;;;;;;;6.98;95.00;99517.63;5013915;28;20140;-69
2022/12/06 03:50:54;;;;;;;0.90;0.77;;;;;;;6.93;94.89;99524.31;5014332;28;20049;-69
2022/12/06 03:53:26;;;;;;;0.73;0.60;;;;;;;6.89;95.25;99517.50;5013781;28;20137;-69
2022/12/06 03:55:55;;;;;;;0.40;0.40;;;;;;;6.85;95.40;99506.47;4996466;28;20038;-69
2022/12/06 03:58:24;;;;;;;0.40;0.40;;;;;;;6.92;95.34;99513.31;5013759;28;20046;-70
2022/12/06 04:00:52;;;;;;;1.70;1.35;;;;;;;6.92;95.00;99522.59;5013890;28;20134;-69
2022/12/06 04:03:22;;;;;;;0.85;0.85;;;;;;;6.91;95.83;99516.69;5013679;28;20041;-69
2022/12/06 04:05:51;;;;;;;0.50;0.50;;;;;;;6.92;95.92;99507.38;5014004;28;20038;-69
2022/12/06 04:08:20;;;;;;;1.08;1.08;;;;;;;6.91;95.30;99505.72;5013982;28;20061;-69
2022/12/06 04:10:49;;;;;;;;;;;;;;;6.90;94.90;99504.00;5014310;28;20050;-69
2022/12/06 04:13:18;;;;;;;0.52;0.52;;;;;;;6.86;95.19;99500.59;5014002;28;19922;-68
2022/12/06 04:15:47;;;;;;;;;;;;;;;6.84;95.83;99498.88;5017964;28;20050;-68
2022/12/06 04:18:17;;;;;;;0.43;0.43;;;;;;;6.77;95.45;99497.09;5017879;28;19921;-69
2022/12/06 04:23:29;;;;;;;1.42;1.13;;;;;;;6.74;94.91;99492.84;5017546;28;20046;-68
2022/12/06 04:25:58;;;;;;;1.13;1.05;;;;;;;6.75;95.54;99484.38;5000335;28;20049;-69
2022/12/06 04:39:08;;;;;;;;;;;;;;;6.76;94.72;99498.78;5017895;28;20057;-69
2022/12/06 04:44:15;;;;;;;0.47;0.47;;;;;;;6.80;95.42;99499.66;5017192;28;20128;-70
2022/12/06 04:46:44;;;;;;;0.60;0.60;;;;;;;6.74;95.09;99498.75;5017427;28;20065;-70
2022/12/06 04:49:13;;;;;;;0.97;0.97;;;;;;;6.83;94.93;99509.84;5016962;28;20284;-70
2022/12/06 04:51:43;;;;;;;0.93;0.90;;;;;;;6.81;95.47;99508.97;5016975;28;20279;-70
2022/12/06 04:54:12;;;;;;;0.60;0.60;;;;;;;6.80;94.29;99502.19;5017535;28;20042;-70
2022/12/06 04:56:40;;;;;;;0.45;0.45;;;;;;;6.78;94.76;99493.72;5017160;28;20591;-70
2022/12/06 04:59:09;;;;;;;0.30;0.30;;;;;;;6.78;94.59;99498.78;5016858;28;20073;-70
2022/12/06 05:01:38;;;;;;;0.70;0.70;;;;;;;6.57;94.17;99449.53;5016831;28;20038;-70
2022/12/06 05:04:06;;;;;;;1.08;0.98;;;;;;;6.50;93.92;99432.53;5016979;28;20065;-70
2022/12/06 05:06:35;;;;;;;1.00;1.00;;;;;;;6.66;93.88;99459.78;5017029;28;20049;-70
2022/12/06 05:09:06;;;;;;;0.50;0.50;;;;;;;6.60;93.78;99449.56;5016969;28;20042;-70
2022/12/06 05:11:34;;;;;;;0.40;0.40;;;;;;;6.63;93.46;99436.91;5016715;28;20077;-70
2022/12/06 05:14:03;;;;;;;0.65;0.65;;;;;;;6.57;93.40;99436.88;5016816;28;20049;-71
2022/12/06 05:16:32;;;;;;;0.75;0.73;;;;;;;6.58;93.50;99447.84;5016544;28;20046;-70
2022/12/06 05:19:01;;;;;;;1.30;1.20;;;;;;;6.52;93.42;99435.09;5016521;28;20045;-71
2022/12/06 05:21:29;;;;;;;0.75;0.75;;;;;;;6.37;92.96;99420.56;5016440;28;20038;-70
2022/12/06 05:23:58;;;;;;;1.27;1.05;;;;;;;6.60;93.19;99458.84;5016405;28;20041;-69
2022/12/06 05:26:29;;;;;;;2.80;2.17;;;;;;;6.57;92.48;99454.63;5015552;28;20073;-70
2022/12/06 05:28:58;;;;;;;0.50;0.50;;;;;;;6.54;93.26;99472.31;5016912;28;20046;-69
2022/12/06 05:31:27;;;;;;;0.40;0.40;;;;;;;6.51;93.04;99474.81;4999087;28;20037;-69
2022/12/06 05:33:56;;;;;;;0.40;0.40;;;;;;;6.51;92.74;99479.88;5016927;28;20488;-68
2022/12/06 05:36:26;;;;;;;0.77;0.50;;;;;;;6.50;93.20;99483.22;5016104;28;20420;-68
2022/12/06 05:38:56;;;;;;;0.60;0.60;;;;;;;6.51;92.80;99499.31;5016181;28;20054;-69
2022/12/06 05:41:25;;;;;;;;;;;;;;;6.48;92.82;99505.19;5016481;28;20077;-68
2022/12/06 05:43:54;;;;;;;0.45;0.45;;;;;;;6.45;92.82;99505.16;5015975;28;19929;-68
2022/12/06 05:46:23;;;;;;;1.77;1.42;;;;;;;6.41;92.76;99503.41;5016043;28;20108;-67
2022/12/06 05:48:52;;;;;;;0.43;0.43;;;;;;;6.32;93.20;99497.38;5015904;28;20049;-69
2022/12/06 05:51:20;;;;;;;0.43;0.43;;;;;;;6.24;92.83;99494.72;5015892;28;20049;-68
2022/12/06 05:53:49;;;;;;;0.40;0.40;;;;;;;6.23;93.13;99493.03;5016075;28;20045;-69
2022/12/06 05:56:18;;;;;;;0.60;0.60;;;;;;;6.16;93.59;99496.31;5015713;28;20038;-68
2022/12/06 05:58:46;;;;;;;0.38;0.38;;;;;;;6.16;92.70;99496.31;5015633;28;20041;-69
2022/12/06 06:01:17;;;;;;;0.28;0.28;;;;;;;6.15;93.62;99494.59;5015974;28;20053;-69
2022/12/06 06:03:45;;;;;;;0.60;0.60;;;;;;;6.11;92.79;99492.88;5016037;28;20073;-69
2022/12/06 06:06:16;;;;;;;0.40;0.40;;;;;;;6.13;93.01;99506.41;5016094;28;20049;-69
2022/12/06 06:08:44;;;;;;;1.40;1.30;;;;;;;6.08;93.18;99500.41;5015526;28;20108;-69
2022/12/06 06:11:13;;;;;;;0.30;0.30;;;;;;;6.07;92.58;99501.25;5015479;28;20515;-69
2022/12/06 06:13:42;;;;;;;0.50;0.50;;;;;;;6.05;92.84;99502.91;5015387;28;20077;-70
2022/12/06 06:16:10;;;;;;;0.52;0.52;;;;;;;6.02;93.02;99505.41;5015666;28;20129;-70
2022/12/06 06:18:40;;;;;;;0.57;0.57;;;;;;;6.00;92.69;99509.56;4998135;28;20046;-70
2022/12/06 06:21:09;;;;;;;0.20;0.20;;;;;;;5.98;92.71;99503.66;5015313;28;20132;-69
2022/12/06 06:23:38;;;;;;;0.57;0.57;;;;;;;5.93;92.64;99505.25;5015504;28;20045;-69
2022/12/06 06:26:08;;;;;;;0.63;0.63;;;;;;;5.79;92.46;99494.03;5015192;28;20503;-69
2022/12/06 06:28:37;;;;;;;0.63;0.63;;;;;;;5.79;92.38;99501.63;5015181;28;20047;-70
2022/12/06 06:31:07;;;;;;;0.32;0.32;;;;;;;5.74;92.56;99500.72;5015142;28;20042;-69
2022/12/06 06:33:36;;;;;;;0.85;0.85;;;;;;;5.64;92.58;99488.75;5015428;28;20087;-70
2022/12/06 06:36:07;;;;;;;0.73;0.73;;;;;;;5.63;92.41;99499.69;5015251;28;20046;-69
2022/12/06 06:38:36;;;;;;;0.88;0.65;;;;;;;5.57;91.80;99492.84;5014168;28;20064;-70
2022/12/06 06:41:06;;;;;;;1.15;1.05;;;;;;;5.51;92.34;99496.97;5014798;28;20050;-70
2022/12/06 06:43:35;;;;;;;0.55;0.55;;;;;;;5.49;92.32;99485.97;5014927;28;20061;-69
2022/12/06 06:46:06;;;;;;;0.40;0.40;;;;;;;5.51;92.09;99491.91;4997458;28;20046;-70
2022/12/06 06:48:39;;;;;;;0.30;0.30;;;;;;;5.46;91.76;99503.63;4997523;28;20062;-72
2022/12/06 06:51:11;;;;;;;0.50;0.50;;;;;;;5.42;91.94;99495.16;5015144;28;20080;-70
2022/12/06 06:53:41;;;;;;;3.00;0.75;;;;;;;5.38;91.71;99495.91;5015022;28;20053;-69
2022/12/06 06:56:10;;;;;;;;;;;;;;;5.38;92.10;99501.81;5015092;28;20046;-69
2022/12/06 06:58:39;;;;;;;1.02;1.02;;;;;;;5.34;91.55;99500.09;5014847;28;19926;-69
2022/12/06 07:01:09;;;;;;;0.90;0.90;;;;;;;5.07;91.81;99454.06;5014519;28;20050;-70
2022/12/06 07:03:37;;;;;;;0.43;0.43;;;;;;;5.30;91.60;99493.25;5014791;28;20283;-70
2022/12/06 07:06:10;;;;;;;0.68;0.68;;;;;;;5.28;91.82;99494.91;5014631;28;20045;-70
2022/12/06 07:08:41;;;;;;;0.45;0.45;;;;;;;5.25;91.60;99494.88;5014491;28;20076;-70
2022/12/06 07:11:11;;;;;;;0.30;0.30;;;;;;;5.19;91.55;99499.81;5014337;28;20052;-69
2022/12/06 07:13:42;;;;;;;0.32;0.32;;;;;;;5.03;91.43;99487.72;5014890;28;20050;-70
2022/12/06 07:16:18;;;;;;;0.80;0.80;;;;;;;5.03;91.34;99509.63;5014242;28;20045;-69
2022/12/06 07:18:47;;;;;;;0.30;0.30;;;;;;;4.96;90.99;99513.72;5014202;28;20042;-70
2022/12/06 07:21:17;;;;;;;1.45;1.10;;;;;;;4.90;90.81;99520.31;5014807;28;20365;-70
2022/12/06 07:23:46;;;;;;;1.30;1.20;;;;;;;4.88;90.84;99522.84;5014179;28;20087;-69
2022/12/06 07:26:17;;;;;;;2.90;1.77;;;;;;;4.85;90.89;99521.94;5014137;28;20076;-70
2022/12/06 07:28:47;;;;;;;0.40;0.40;;;;;;;4.80;90.69;99521.81;5014417;28;20574;-70
2022/12/06 07:31:20;;;;;;;0.30;0.30;;;;;;;4.81;90.75;99517.63;5012401;28;20514;-70
2022/12/06 07:33:52;;;;;;;0.30;0.30;;;;;;;4.82;90.61;99532.84;5014104;28;20377;-70
2022/12/06 07:36:23;;;;;;;0.38;0.38;;;;;;;4.86;90.65;99531.22;5014048;28;20041;-70
2022/12/06 07:38:55;;;;;;;0.40;0.40;;;;;;;4.87;90.62;99525.34;5014477;28;20435;-70
2022/12/06 07:46:52;;;;;;;0.40;0.40;;;;;;;4.73;90.71;99482.09;5004981;28;20058;-71
2022/12/06 07:49:21;;;;;;;0.47;0.47;;;;;;;4.97;90.23;99517.94;4976583;28;20488;-70
2022/12/06 07:51:53;;;;;;;0.60;0.60;;;;;;;4.99;90.17;99526.41;4994520;28;20034;-71
2022/12/06 07:54:22;;;;;;;0.40;0.40;;;;;;;4.93;90.46;99515.34;4994117;28;20057;-71
2022/12/06 07:56:51;;;;;;;0.30;0.30;;;;;;;4.96;90.04;99536.47;5000411;28;20046;-70
2022/12/06 07:59:20;;;;;;;0.20;0.20;;;;;;;4.97;90.24;99538.16;5013534;28;20049;-71
2022/12/06 08:01:50;;;;;;;1.27;1.20;;;;;;;4.99;90.05;99540.75;5013495;28;20129;-70
2022/12/06 08:04:19;;;;;;;0.65;0.65;;;;;;;5.00;89.72;99543.28;5007462;28;20043;-71
2022/12/06 08:06:47;;;;;;;0.32;0.32;;;;;;;4.99;89.61;99540.75;5001649;28;20412;-70
2022/12/06 08:09:17;;;;;;;0.40;0.40;;;;;;;5.04;89.41;99542.53;4994022;28;20050;-71
2022/12/06 08:11:47;;;;;;;0.30;0.30;;;;;;;5.09;89.57;99543.47;4994241;28;20149;-70
2022/12/06 08:14:15;;;;;;;0.38;0.38;;;;;;;5.17;89.45;99541.94;4993863;28;20057;-70
2022/12/06 08:16:44;;;;;;;0.37;0.37;;;;;;;5.16;89.39;99524.22;4976672;28;20039;-71
2022/12/06 08:19:13;;;;;;;0.47;0.47;;;;;;;5.29;89.40;99537.09;4994132;28;20841;-69
2022/12/06 08:21:41;;;;;;;0.60;0.60;;;;;;;5.30;89.17;99538.78;4993935;28;20042;-70
2022/12/06 08:24:11;;;;;;;1.75;1.63;;;;;;;5.14;89.37;99498.00;4993895;28;20039;-71
2022/12/06 08:26:41;;;;;;;0.60;0.60;;;;;;;5.30;89.10;99533.72;4994147;28;20047;-70
2022/12/06 08:29:10;;;;;;;0.40;0.40;;;;;;;5.32;88.91;99547.28;4994166;28;20054;-70
2022/12/06 08:31:39;;;;;;;0.30;0.30;;;;;;;5.32;88.52;99542.22;4993789;28;20496;-71
2022/12/06 08:34:08;;;;;;;0.30;0.30;;;;;;;5.36;88.75;99535.53;4994081;28;20076;-71
2022/12/06 08:36:39;;;;;;;0.52;0.52;;;;;;;5.35;88.46;99537.19;4993898;28;20299;-71
2022/12/06 08:39:08;;;;;;;0.40;0.40;;;;;;;5.38;88.18;99541.47;4994103;28;20133;-71
2022/12/06 08:44:18;;;;;;;0.75;0.75;;;;;;;5.39;88.19;99533.91;5013397;28;20061;-71
2022/12/06 08:46:47;;;;;;;0.40;0.40;;;;;;;5.21;87.68;99499.81;4996523;28;20176;-71
2022/12/06 08:49:17;;;;;;;0.30;0.30;;;;;;;5.36;87.65;99528.78;5013597;28;20045;-71
2022/12/06 08:51:46;;;;;;;0.35;0.35;;;;;;;5.42;87.57;99535.66;5013847;28;20480;-71
2022/12/06 08:54:17;;;;;;;0.30;0.30;;;;;;;5.42;87.27;99539.00;4995944;28;20048;-71
2022/12/06 08:56:47;;;;;;;0.28;0.28;;;;;;;5.48;87.62;99534.88;5013358;28;20787;-71
2022/12/06 08:59:17;;;;;;;0.30;0.30;;;;;;;5.52;87.50;99529.06;5013443;28;20038;-71
2022/12/06 09:01:47;;;;;;;0.55;0.55;;;;;;;5.52;87.59;99527.34;5015512;28;20050;-71
2022/12/06 09:04:16;;;;;;;0.30;0.30;;;;;;;5.55;86.91;99524.03;5016684;28;20054;-71
2022/12/06 09:06:45;;;;;;;;;;;;;;;5.56;87.16;99516.47;5017606;28;20121;-71
2022/12/06 09:09:15;;;;;;;0.40;0.40;;;;;;;5.60;87.06;99522.44;5016733;28;19921;-71
2022/12/06 09:11:45;;;;;;;0.28;0.28;;;;;;;5.59;86.31;99520.75;5017001;28;20060;-71
2022/12/06 09:14:19;;;;;;;0.45;0.40;;;;;;;5.58;86.59;99519.88;5015881;28;20045;-71
2022/12/06 09:16:52;;;;;;;6.43;0.75;;;;;;;5.60;86.61;99512.31;4998994;28;20129;-72
2022/12/06 09:19:21;;;;;;;0.50;0.50;;;;;;;5.63;86.30;99512.34;5015385;28;20496;-71
2022/12/06 09:21:49;;;;;;;0.27;0.27;;;;;;;5.68;86.42;99515.81;5016453;28;20042;-71
2022/12/06 09:24:19;;;;;;;0.55;0.55;;;;;;;5.48;86.66;99481.72;5015970;28;20125;-71
2022/12/06 09:26:47;;;;;;;2.13;1.58;;;;;;;5.69;86.15;99505.69;5016385;28;20046;-71
2022/12/06 09:29:19;;;;;;;0.40;0.40;;;;;;;5.71;86.33;99508.28;5016299;28;20046;-72
2022/12/06 09:31:47;;;;;;;0.40;0.40;;;;;;;5.72;86.20;99507.44;5013355;28;20124;-71
2022/12/06 09:34:17;;;;;;;0.40;0.40;;;;;;;5.69;85.86;99502.31;5016042;28;20048;-71
2022/12/06 09:36:49;;;;;;;0.30;0.30;;;;;;;5.76;85.96;99515.09;5015779;28;20354;-72
2022/12/06 09:39:23;;;;;;;0.38;0.38;;;;;;;5.73;85.67;99521.81;5016002;28;20739;-71
2022/12/06 09:42:22;;;;;;;0.65;0.65;;;;;;;5.72;85.73;99513.34;5015794;28;20057;-71
2022/12/06 09:45:18;;;;;;;0.50;0.50;;;;;;;5.65;85.44;99515.75;5015748;28;20054;-71
2022/12/06 09:48:05;;;;;;;0.45;0.45;;;;;;;5.62;85.33;99514.03;5016240;28;20116;-72
2022/12/06 09:50:46;;;;;;;0.52;0.45;;;;;;;5.59;85.30;99506.38;4998743;28;20041;-71
2022/12/06 09:53:23;;;;;;;0.82;0.82;;;;;;;5.46;85.38;99488.44;5015988;28;20492;-71
2022/12/06 09:56:02;;;;;;;0.55;0.55;;;;;;;5.60;85.15;99512.31;5015822;28;20054;-70
2022/12/06 09:58:46;;;;;;;0.85;0.85;;;;;;;5.56;85.61;99501.28;4999796;28;20049;-71
2022/12/06 10:01:27;;;;;;;3.20;1.30;;;;;;;5.51;85.23;99502.03;4996114;28;20057;-71
2022/12/06 10:04:24;;;;;;;0.43;0.43;;;;;;;5.49;85.04;99498.63;4994824;28;20411;-70
2022/12/06 10:07:03;;;;;;;0.60;0.60;;;;;;;5.53;85.34;99490.25;4996094;28;20050;-71
2022/12/06 10:09:42;;;;;;;0.27;0.27;;;;;;;5.62;85.50;99495.44;5015700;28;20077;-71
2022/12/06 10:12:24;;;;;;;0.35;0.35;;;;;;;5.66;85.65;99487.09;5015816;28;20054;-71
2022/12/06 10:15:09;;;;;;;0.40;0.40;;;;;;;5.64;85.25;99476.09;5015518;28;20141;-71
2022/12/06 10:17:51;;;;;;;2.65;1.35;;;;;;;5.65;85.60;99480.31;5015544;28;20088;-71
2022/12/06 10:20:33;;;;;;;0.50;0.50;;;;;;;5.65;85.35;99475.25;5014152;28;20133;-71
2022/12/06 10:23:15;;;;;;;0.38;0.38;;;;;;;5.47;85.18;99444.63;5015629;28;20049;-70
2022/12/06 10:25:55;;;;;;;0.30;0.30;;;;;;;5.51;85.24;99428.66;5014310;28;20050;-71
2022/12/06 10:28:35;;;;;;;1.10;0.60;;;;;;;5.70;84.75;99459.31;5014030;28;20057;-71
2022/12/06 10:31:20;;;;;;;0.50;0.50;;;;;;;5.80;85.31;99457.78;5015472;28;20053;-71
2022/12/06 10:33:56;;;;;;;0.30;0.30;;;;;;;5.76;84.60;99459.41;5015063;28;20134;-70
2022/12/06 10:36:39;;;;;;;0.30;0.30;;;;;;;5.78;84.36;99461.97;5014285;28;20112;-71
2022/12/06 10:39:16;;;;;;;0.40;0.40;;;;;;;5.78;84.38;99461.97;5001504;28;20175;-71
2022/12/06 10:41:52;;;;;;;0.40;0.40;;;;;;;5.77;84.44;99461.13;4995104;28;20077;-71
2022/12/06 10:44:29;;;;;;;0.38;0.38;;;;;;;5.72;84.56;99452.59;4995675;28;20050;-71
2022/12/06 10:47:05;;;;;;;0.25;0.25;;;;;;;5.74;84.40;99466.13;4977194;28;20173;-71
2022/12/06 10:49:43;;;;;;;0.50;0.50;;;;;;;5.73;84.66;99468.66;4995537;28;20065;-71
2022/12/06 10:52:24;;;;;;;0.40;0.40;;;;;;;5.72;84.01;99457.66;4995271;28;20119;-71
2022/12/06 10:55:13;;;;;;;0.38;0.38;;;;;;;5.73;84.61;99458.50;4995085;28;20050;-71
2022/12/06 10:57:48;;;;;;;0.40;0.40;;;;;;;5.74;84.63;99460.19;4978241;28;20053;-70
2022/12/06 11:00:19;;;;;;;1.85;1.33;;;;;;;5.80;84.76;99460.31;4983945;28;20132;-71
2022/12/06 11:02:58;;;;;;;0.50;0.50;;;;;;;5.75;84.08;99449.25;5011506;28;20408;-71
2022/12/06 11:05:36;;;;;;;0.28;0.28;;;;;;;5.79;84.52;99453.53;5014538;28;20128;-71
2022/12/06 11:08:11;;;;;;;0.35;0.35;;;;;;;5.77;84.18;99457.72;5014841;28;20061;-71
2022/12/06 11:10:42;;;;;;;0.17;0.17;;;;;;;5.53;84.42;99414.31;5013242;28;20045;-71
2022/12/06 11:13:20;;;;;;;0.22;0.22;;;;;;;5.75;84.06;99451.78;5013474;28;20100;-70
2022/12/06 11:15:55;;;;;;;0.20;0.20;;;;;;;5.67;83.98;99444.06;5014415;28;20496;-70
2022/12/06 11:18:28;;;;;;;2.20;0.70;;;;;;;5.67;83.38;99438.16;5014497;28;20042;-71
2022/12/06 11:21:03;;;;;;;0.30;0.30;;;;;;;5.66;84.02;99452.53;5014314;28;20054;-70
2022/12/06 11:23:41;;;;;;;0.30;0.30;;;;;;;5.63;83.50;99436.41;5007444;28;20049;-71
2022/12/06 11:26:21;;;;;;;0.30;0.30;;;;;;;5.55;83.55;99423.66;4993476;28;20054;-71
2022/12/06 11:29:02;;;;;;;0.40;0.40;;;;;;;5.62;84.27;99424.56;4994899;28;20061;-70
2022/12/06 11:31:36;;;;;;;0.38;0.38;;;;;;;5.66;83.79;99436.47;4994495;28;20050;-70
2022/12/06 11:34:13;;;;;;;0.40;0.40;;;;;;;5.62;83.98;99430.50;4995006;28;20046;-70
2022/12/06 11:36:45;;;;;;;0.28;0.28;;;;;;;5.60;84.14;99437.22;4994461;28;20488;-70
2022/12/06 11:39:14;;;;;;;0.20;0.20;;;;;;;5.37;84.06;99398.06;4994611;28;20477;-70
2022/12/06 11:41:44;;;;;;;;;;;;;;;5.61;83.72;99436.41;4994567;28;20042;-70
2022/12/06 11:44:19;;;;;;;0.40;0.40;;;;;;;5.59;83.98;99435.50;4995178;28;19929;-71
2022/12/06 11:46:53;;;;;;;0.28;0.28;;;;;;;5.50;84.10;99425.25;5010285;28;20042;-71
2022/12/06 11:49:28;;;;;;;0.47;0.47;;;;;;;5.60;83.87;99431.31;4997258;28;20074;-70
2022/12/06 11:52:04;;;;;;;0.20;0.20;;;;;;;5.59;83.83;99439.75;4977180;28;20039;-71
2022/12/06 11:54:38;;;;;;;0.30;0.30;;;;;;;5.59;83.97;99440.56;4995098;28;20060;-71
2022/12/06 11:57:17;;;;;;;0.57;0.57;;;;;;;5.28;83.87;99393.72;4976852;28;20046;-71
2022/12/06 12:00:11;;;;;;;0.30;0.30;;;;;;;5.56;83.81;99434.63;5005000;28;20054;-70
2022/12/06 12:02:41;;;;;;;0.22;0.22;;;;;;;5.58;84.18;99448.16;5006569;28;20491;-71
2022/12/06 12:05:14;;;;;;;0.20;0.20;;;;;;;5.57;84.08;99437.16;5013677;28;20050;-71
2022/12/06 12:07:47;;;;;;;0.73;0.50;;;;;;;5.56;84.23;99430.44;5013731;28;20049;-71
2022/12/06 12:10:30;;;;;;;0.20;0.20;;;;;;;5.58;84.28;99432.97;4996187;28;20046;-70
2022/12/06 12:16:03;;;;;;;0.57;0.57;;;;;;;5.53;84.15;99425.31;4999612;28;20149;-71
2022/12/06 12:18:35;;;;;;;0.40;0.40;;;;;;;5.52;84.48;99422.75;5012738;28;20046;-71
2022/12/06 12:21:06;;;;;;;0.30;0.30;;;;;;;5.46;84.45;99418.44;5012055;28;20069;-71
2022/12/06 12:23:38;;;;;;;1.02;1.02;;;;;;;5.48;84.33;99406.66;5001520;28;20058;-71
2022/12/06 12:26:13;;;;;;;0.40;0.40;;;;;;;5.49;84.58;99415.13;5009276;28;20492;-71
2022/12/06 12:28:44;;;;;;;0.30;0.30;;;;;;;5.52;84.94;99418.53;5013482;28;20058;-71
2022/12/06 12:31:18;;;;;;;0.68;0.68;;;;;;;5.52;84.64;99413.47;5012734;28;20058;-71
2022/12/06 12:33:48;;;;;;;0.30;0.30;;;;;;;5.46;84.57;99415.91;5013664;28;20404;-71
2022/12/06 12:36:22;;;;;;;0.40;0.40;;;;;;;5.37;85.13;99409.03;4997290;28;20136;-72